Notice: Undefined index: language in /home/u232659314/public_html/vam/index.php on line 31
Pluna Virtual

METAR AND TAF INFORMATION
METAR FOR SUAA
ADDS - METARS form results

(0400 UTC 19 January 2019)
Data provider http://aviationweather.gov/metar/data/
 
Forecast for: SUAA (MELILLA/ANGEL S., UY)
Text: SUAA 182350Z 1900/1924 11015KT 9999 SCT020 TX22/1918Z TN18/1909Z
Forecast period: 0000 UTC 19 January 2019 to 0000 UTC 20 January 2019
Forecast type: FROM: standard forecast or significant change
Winds: from the ESE (110 degrees) at 17 MPH (15 knots; 7.7 m/s)
Visibility: 6 or more miles 10+ km)
Ceiling: at least 12,000 feet AGL
Clouds: scattered clouds at 2000 feet AGL
Weather: no significant weather forecast for this period

AIRPORT MAP

RUNWAY INFORMATION
Runway 18 Runway length 4101 ft Runway width 75 ft
Runway elevation 151 ft Runway displaced threshold 0 ft Runway heading 177
Runway 36 Runway length 4101 ft Runway width 75 ft
Runway elevation 174 ft Runway displaced threshold 0 ft Runway heading 357

AIRPORT FREQUENCIES
Type RDO Name ADAMI RDO Frequency 45.662 MHZ
Type TWR Name ADAMI TWR Frequency 118.4 MHZ

AIRPORT NEAR NAVIGATION AIDS
Type NDB Name Adami Frequency 395 KHZ